Time;durP1;ratioP1;P1;durP2;ratioP2;P2;SDS_P1;SDS_P2;PMS_P1;PMS_P2;Temp;Humidity;BMP_temperature;BMP_pressure;BME280_temperature;BME280_humidity;BME280_pressure;Samples;Min_cycle;Max_cycle;Signal;HPM_P1;HPM_P2
2023/11/11 08:16:57;;;;;;;3.05;1.52;;;;;;;4.69;90.27;95660.41;2116671;27;20572;-68
2023/11/11 08:17:59;;;;;;;4.35;1.65;;;;;;;4.99;89.33;95665.31;2108633;27;20212;-66
2023/11/11 08:19:00;;;;;;;4.70;2.22;;;;;;;5.06;89.03;95666.78;2100867;28;20202;-66
2023/11/11 08:20:03;;;;;;;7.32;2.42;;;;;;;5.16;88.37;95664.69;2103898;28;20199;-67
2023/11/11 08:23:10;;;;;;;5.80;1.67;;;;;;;5.05;89.68;95670.28;2096054;27;20563;-67
2023/11/11 08:26:00;;;;;;;6.32;2.13;;;;;;;5.02;89.19;95663.47;2099449;27;20565;-67
2023/11/11 08:28:47;;;;;;;4.70;1.85;;;;;;;5.02;88.19;95670.41;2091303;27;20665;-67
2023/11/11 08:29:49;;;;;;;2.85;1.23;;;;;;;4.98;87.38;95680.03;2085678;28;20811;-67
2023/11/11 08:30:50;;;;;;;7.05;2.00;;;;;;;5.13;87.15;95669.97;2086268;28;20233;-67
2023/11/11 08:31:52;;;;;;;3.78;1.70;;;;;;;5.01;86.63;95668.72;2086952;28;20189;-67
2023/11/11 08:35:15;;;;;;;6.63;1.60;;;;;;;5.05;87.28;95678.91;2083014;28;21301;-66
2023/11/11 08:38:08;;;;;;;5.28;1.70;;;;;;;5.17;86.03;95680.16;2095624;27;20579;-67
2023/11/11 08:39:12;;;;;;;10.60;2.60;;;;;;;5.33;85.29;95682.16;2086338;28;20193;-67
2023/11/11 08:58:25;;;;;;;8.55;1.90;;;;;;;4.67;88.92;95708.75;2094483;27;20579;-67
2023/11/11 09:01:26;;;;;;;5.30;1.95;;;;;;;4.74;89.60;95716.25;2107802;27;20566;-68
2023/11/11 09:04:04;;;;;;;8.23;1.40;;;;;;;5.20;86.01;95705.91;2083526;28;20582;-69
2023/11/11 09:05:06;;;;;;;5.05;1.67;;;;;;;5.10;85.58;95709.75;2081501;28;20220;-69
2023/11/11 09:06:09;;;;;;;6.03;2.05;;;;;;;5.78;83.68;95701.09;2083344;28;20208;-68
2023/11/11 09:07:12;;;;;;;7.28;1.67;;;;;;;6.20;82.13;95716.63;2078957;28;20211;-66
2023/11/11 09:08:13;;;;;;;2.72;1.40;;;;;;;6.49;79.78;95713.72;2074679;28;20267;-66
2023/11/11 09:09:16;;;;;;;6.95;1.40;;;;;;;6.07;80.81;95720.66;2074535;28;20201;-67
2023/11/11 09:10:22;;;;;;;7.97;1.38;;;;;;;6.14;81.22;95713.47;2072956;28;20438;-68
2023/11/11 09:11:25;;;;;;;4.07;1.67;;;;;;;5.85;81.55;95712.88;2073563;28;20194;-68
2023/11/11 09:12:27;;;;;;;7.30;1.33;;;;;;;5.84;82.64;95724.16;2072643;28;20668;-67
2023/11/11 09:13:28;;;;;;;2.60;1.33;;;;;;;5.88;81.11;95726.56;2066936;28;20221;-68
2023/11/11 09:14:33;;;;;;;5.28;2.45;;;;;;;5.94;80.53;95720.31;2074422;28;20252;-67
2023/11/11 09:15:34;;;;;;;2.60;1.30;;;;;;;5.72;81.68;95717.72;2073688;28;20209;-68
2023/11/11 09:16:36;;;;;;;3.97;1.77;;;;;;;5.78;81.94;95727.84;2070032;28;20201;-67
2023/11/11 09:17:38;;;;;;;3.15;1.48;;;;;;;5.70;82.18;95745.44;2070005;28;20233;-67
2023/11/11 09:18:39;;;;;;;3.25;1.17;;;;;;;5.75;81.70;95740.06;2071952;28;20796;-67
2023/11/11 09:19:41;;;;;;;3.88;1.30;;;;;;;5.60;81.99;95739.78;2075817;28;20209;-67
2023/11/11 09:20:43;;;;;;;2.70;1.40;;;;;;;5.40;82.70;95746.56;2075175;28;20201;-67
2023/11/11 10:01:26;;;;;;;7.43;1.77;;;;;;;4.98;84.04;95762.00;2086017;28;20583;-68
2023/11/11 10:02:28;;;;;;;3.22;1.58;;;;;;;5.09;84.26;95757.22;2080360;28;20349;-69
2023/11/11 10:04:48;;;;;;;9.57;4.10;;;;;;;5.80;80.91;95766.63;2083775;28;20564;-69
2023/11/11 10:05:50;;;;;;;16.48;6.70;;;;;;;5.57;81.06;95758.03;2081535;28;20223;-68
2023/11/11 10:06:52;;;;;;;8.20;4.70;;;;;;;5.38;81.00;95761.34;2082257;28;20198;-68
2023/11/11 10:09:18;;;;;;;17.67;1.45;;;;;;;5.23;80.24;95765.34;2103177;27;20658;-69
2023/11/11 10:10:21;;;;;;;3.25;1.27;;;;;;;5.38;80.81;95766.53;2098946;28;20223;-69
2023/11/11 10:11:25;;;;;;;4.68;1.70;;;;;;;5.34;80.70;95758.91;2099804;28;20549;-70
2023/11/11 10:12:27;;;;;;;8.02;1.65;;;;;;;5.32;81.12;95768.47;2100961;28;20218;-69
2023/11/11 10:13:30;;;;;;;2.10;1.08;;;;;;;5.29;80.87;95768.59;2091434;28;20751;-70
2023/11/11 10:15:45;;;;;;;9.95;1.15;;;;;;;5.28;80.57;95772.94;2089314;28;20550;-68
2023/11/11 10:16:54;;;;;;;7.10;1.15;;;;;;;5.38;80.35;95773.41;2085085;28;20191;-68
2023/11/11 10:17:58;;;;;;;2.05;1.02;;;;;;;5.55;79.27;95776.22;2081722;28;20204;-68
2023/11/11 10:19:00;;;;;;;5.65;1.20;;;;;;;5.68;79.22;95770.56;2076770;28;20203;-69
2023/11/11 10:20:03;;;;;;;3.25;1.10;;;;;;;5.70;79.51;95776.50;2077106;28;20233;-69
2023/11/11 10:21:07;;;;;;;3.63;2.00;;;;;;;5.93;79.55;95773.03;2076837;28;20272;-69
2023/11/11 10:22:08;;;;;;;7.82;1.27;;;;;;;5.97;78.96;95776.34;2072921;28;20201;-68
2023/11/11 10:23:15;;;;;;;2.20;1.10;;;;;;;6.00;78.83;95777.06;2072385;28;20251;-69
2023/11/11 10:24:17;;;;;;;7.10;1.40;;;;;;;5.88;77.92;95782.75;2076147;28;20200;-69
2023/11/11 10:25:19;;;;;;;4.38;1.55;;;;;;;5.99;78.09;95785.78;2074170;28;20197;-69
2023/11/11 10:26:22;;;;;;;1.58;1.00;;;;;;;5.85;78.36;95780.25;2075076;28;20235;-69
2023/11/11 10:27:24;;;;;;;5.78;1.58;;;;;;;5.86;78.90;95790.53;2076264;28;20253;-68
2023/11/11 10:28:25;;;;;;;2.30;1.30;;;;;;;6.00;79.22;95791.78;2070835;28;20640;-69
2023/11/11 10:29:27;;;;;;;3.60;1.10;;;;;;;5.87;78.37;95781.03;2071095;28;20207;-69
2023/11/11 10:30:28;;;;;;;4.55;1.27;;;;;;;5.89;79.12;95777.50;2074292;28;20202;-69
2023/11/11 10:31:35;;;;;;;2.25;1.02;;;;;;;5.78;78.58;95771.88;2072879;28;20200;-69
2023/11/11 10:32:37;;;;;;;2.38;1.00;;;;;;;5.80;78.69;95775.28;2072447;28;20237;-69
2023/11/11 10:33:45;;;;;;;3.00;1.00;;;;;;;5.82;79.15;95778.63;2075502;28;20291;-69
2023/11/11 10:34:46;;;;;;;1.92;0.90;;;;;;;5.67;78.43;95782.66;2073101;28;20198;-69
2023/11/11 10:37:23;;;;;;;4.93;1.67;;;;;;;5.68;79.96;95774.00;2090827;27;20571;-69
2023/11/11 10:42:33;;;;;;;5.43;1.67;;;;;;;5.42;79.75;95782.75;2085917;28;20571;-70
2023/11/11 10:45:17;;;;;;;7.47;2.83;;;;;;;5.55;80.27;95785.75;2083241;28;20547;-68
2023/11/11 10:46:18;;;;;;;3.17;1.63;;;;;;;5.59;79.02;95787.31;2078547;28;20215;-69
2023/11/11 10:47:20;;;;;;;3.83;1.52;;;;;;;5.59;78.15;95778.69;2083355;28;20283;-69
2023/11/11 10:48:23;;;;;;;39.88;15.65;;;;;;;5.61;78.68;95784.66;2074673;28;20225;-69
2023/11/11 10:49:27;;;;;;;15.48;1.75;;;;;;;5.77;78.54;95782.31;2072020;28;20212;-68
2023/11/11 10:50:30;;;;;;;11.65;4.28;;;;;;;5.92;78.36;95786.88;2064253;28;20197;-69
2023/11/11 10:51:34;;;;;;;6.32;3.42;;;;;;;6.58;77.45;95783.34;2061899;28;20213;-70
2023/11/11 10:52:37;;;;;;;2.33;1.10;;;;;;;7.27;74.30;95774.28;2072547;28;20589;-71
2023/11/11 10:53:40;;;;;;;1.95;1.23;;;;;;;6.97;74.44;95784.28;2062841;28;20262;-71
2023/11/11 10:54:43;;;;;;;2.67;1.10;;;;;;;6.56;74.41;95786.94;2063785;28;20270;-70
2023/11/11 10:55:54;;;;;;;5.57;1.10;;;;;;;6.30;75.05;95781.94;2062800;28;20291;-70
2023/11/11 10:56:57;;;;;;;6.70;1.20;;;;;;;6.21;75.51;95774.53;2061400;28;20210;-69
2023/11/11 10:57:59;;;;;;;5.03;1.25;;;;;;;6.16;75.66;95781.66;2059616;28;20194;-69
2023/11/11 10:59:08;;;;;;;2.58;1.15;;;;;;;6.27;76.24;95778.59;2064029;28;20203;-69
2023/11/11 11:00:20;;;;;;;3.42;1.27;;;;;;;6.25;76.02;95777.81;2065322;28;20555;-69
2023/11/11 11:01:24;;;;;;;4.53;1.27;;;;;;;6.08;75.16;95784.53;2063366;28;20242;-69
2023/11/11 11:02:27;;;;;;;2.28;0.90;;;;;;;6.05;75.29;95776.91;2065504;28;20209;-68
2023/11/11 11:03:29;;;;;;;1.83;1.00;;;;;;;6.03;75.58;95782.16;2062938;28;21183;-69
2023/11/11 11:04:36;;;;;;;2.55;1.02;;;;;;;6.07;76.01;95774.25;2066617;28;20210;-69
2023/11/11 11:05:52;;;;;;;3.90;1.08;;;;;;;6.14;75.87;95770.50;2066484;28;20214;-69
2023/11/11 11:07:18;;;;;;;2.65;1.10;;;;;;;6.13;75.61;95779.19;2063921;28;20215;-69
2023/11/11 11:08:34;;;;;;;1.95;0.88;;;;;;;6.05;75.18;95775.13;2059888;28;20249;-69
2023/11/11 11:09:51;;;;;;;4.05;1.38;;;;;;;5.87;76.09;95781.88;2061585;28;20274;-68
2023/11/11 11:11:11;;;;;;;4.63;1.27;;;;;;;5.86;75.46;95777.59;2061997;28;20205;-68
2023/11/11 11:12:45;;;;;;;9.90;3.90;;;;;;;5.87;75.71;95774.09;2074007;28;20183;-66
2023/11/11 11:13:49;;;;;;;8.60;3.83;;;;;;;5.86;75.50;95764.63;2064379;28;20233;-68
2023/11/11 11:14:51;;;;;;;4.43;2.20;;;;;;;6.01;76.01;95770.16;2062596;28;20201;-69
2023/11/11 11:15:53;;;;;;;2.95;0.95;;;;;;;6.83;73.60;95774.50;2065101;28;20203;-69
2023/11/11 11:16:55;;;;;;;2.95;1.23;;;;;;;6.65;73.72;95770.97;2065313;28;20213;-69
2023/11/11 11:17:56;;;;;;;3.30;1.33;;;;;;;6.75;73.74;95769.66;2064343;28;20249;-68
2023/11/11 11:18:58;;;;;;;3.53;1.20;;;;;;;7.12;72.04;95767.19;2061143;28;20226;-68
2023/11/11 11:20:04;;;;;;;2.13;1.10;;;;;;;7.31;69.39;95756.81;2063118;28;20206;-68
2023/11/11 11:21:08;;;;;;;3.15;1.30;;;;;;;6.65;72.31;95758.84;2064108;28;20338;-68
2023/11/11 11:22:10;;;;;;;3.67;1.30;;;;;;;6.42;72.99;95767.59;2063040;28;20195;-68
2023/11/11 11:23:12;;;;;;;6.65;1.20;;;;;;;6.29;73.75;95764.66;2059308;28;20219;-69
2023/11/11 11:24:14;;;;;;;8.38;1.90;;;;;;;6.15;74.42;95764.41;2061131;28;20653;-68
2023/11/11 11:25:34;;;;;;;6.72;1.20;;;;;;;6.62;74.08;95777.13;2062314;28;20226;-68
2023/11/11 11:26:36;;;;;;;3.22;1.00;;;;;;;6.74;72.49;95760.19;2063613;28;20207;-69
2023/11/11 11:27:38;;;;;;;5.47;1.40;;;;;;;6.79;73.67;95765.19;2063170;28;20750;-69
2023/11/11 11:28:40;;;;;;;4.97;1.30;;;;;;;6.72;73.68;95759.41;2063366;28;20226;-68
2023/11/11 11:29:41;;;;;;;4.63;1.45;;;;;;;6.73;73.87;95760.25;2060147;28;20204;-69
2023/11/11 11:30:50;;;;;;;6.65;1.30;;;;;;;6.54;73.72;95759.31;2058457;28;20211;-69
2023/11/11 11:32:08;;;;;;;3.17;1.20;;;;;;;6.41;74.41;95762.47;2058669;28;20194;-69
2023/11/11 11:33:14;;;;;;;2.75;1.45;;;;;;;8.32;69.68;95769.34;2061926;28;20250;-69
2023/11/11 11:34:16;;;;;;;3.97;1.60;;;;;;;7.68;69.84;95757.69;2060549;28;20199;-69
2023/11/11 11:35:26;;;;;;;5.68;1.15;;;;;;;8.28;69.30;95760.00;2059729;28;20629;-68
2023/11/11 11:36:29;;;;;;;5.10;1.15;;;;;;;7.76;68.83;95754.75;2060793;28;20196;-69
2023/11/11 11:37:31;;;;;;;5.32;1.30;;;;;;;7.40;70.04;95758.97;2065123;28;20191;-69
2023/11/11 11:38:38;;;;;;;10.48;1.20;;;;;;;7.64;70.41;95753.56;2063370;28;20280;-69
2023/11/11 11:40:12;;;;;;;5.90;1.40;;;;;;;6.84;70.61;95743.31;2062694;28;20206;-68
2023/11/11 11:41:23;;;;;;;2.88;1.20;;;;;;;6.65;72.17;95750.22;2062061;28;20261;-68
2023/11/11 11:42:27;;;;;;;6.80;1.23;;;;;;;6.62;72.58;95758.97;2062298;28;20673;-69
2023/11/11 11:43:30;;;;;;;2.15;1.27;;;;;;;6.60;73.22;95762.53;2060717;28;20216;-68
2023/11/11 11:44:32;;;;;;;4.40;1.33;;;;;;;6.58;73.52;95753.97;2062749;28;20206;-69
2023/11/11 11:45:35;;;;;;;3.00;1.40;;;;;;;6.68;73.73;95750.91;2061301;28;20214;-69
2023/11/11 11:46:36;;;;;;;3.25;1.33;;;;;;;6.59;74.22;95758.25;2063474;28;20202;-69
2023/11/11 11:47:40;;;;;;;7.30;1.70;;;;;;;6.49;74.49;95763.84;2061143;28;20198;-69
2023/11/11 11:48:42;;;;;;;2.70;1.30;;;;;;;6.41;73.53;95745.16;2058761;28;20230;-69
2023/11/11 11:49:49;;;;;;;2.13;1.30;;;;;;;6.42;74.33;95756.38;2062470;28;20207;-69
2023/11/11 11:51:02;;;;;;;4.10;1.50;;;;;;;6.34;74.17;95752.34;2059394;28;20227;-69
2023/11/11 12:11:02;;;;;;;4.40;1.95;;;;;;;5.93;79.42;95786.00;2090498;28;20577;-69
2023/11/11 12:12:08;;;;;;;8.00;1.60;;;;;;;6.12;79.05;95782.66;2093933;28;20243;-69
2023/11/11 12:14:38;;;;;;;11.10;2.55;;;;;;;6.10;77.94;95774.13;2101311;27;20560;-69
2023/11/11 12:30:23;;;;;;;3.33;2.63;;;;;;;5.90;80.62;95788.69;2106384;27;21106;-69
2023/11/11 12:31:25;;;;;;;3.70;1.92;;;;;;;6.34;79.20;95786.06;2103129;28;20251;-69
2023/11/11 12:32:26;;;;;;;4.72;1.70;;;;;;;6.36;79.29;95783.41;2103975;28;20195;-69
2023/11/11 12:33:28;;;;;;;3.40;1.63;;;;;;;6.69;78.90;95785.47;2102732;28;20603;-69
2023/11/11 12:34:29;;;;;;;6.97;1.50;;;;;;;6.54;78.40;95785.25;2099808;28;20195;-69
2023/11/11 12:35:32;;;;;;;5.63;2.00;;;;;;;6.41;79.70;95786.66;2099323;28;20247;-70
2023/11/11 12:36:35;;;;;;;5.15;2.65;;;;;;;6.36;80.14;95783.41;2098218;28;20188;-69
2023/11/11 12:37:40;;;;;;;4.22;2.00;;;;;;;6.30;80.34;95789.69;2099900;28;20199;-69
2023/11/11 12:38:42;;;;;;;3.30;1.80;;;;;;;6.37;80.30;95777.31;2091193;28;20676;-70
2023/11/11 12:39:51;;;;;;;5.85;1.90;;;;;;;7.87;77.31;95782.81;2090140;28;20196;-70
2023/11/11 12:40:53;;;;;;;3.42;1.55;;;;;;;8.80;74.03;95774.78;2090929;28;20667;-69
2023/11/11 12:41:56;;;;;;;7.47;1.70;;;;;;;9.54;71.33;95782.22;2088570;28;20198;-70
2023/11/11 12:42:58;;;;;;;4.00;1.45;;;;;;;9.76;70.25;95774.06;2090749;28;20596;-70
2023/11/11 12:44:02;;;;;;;3.33;1.42;;;;;;;9.55;68.99;95768.25;2091387;28;20418;-70
2023/11/11 12:45:04;;;;;;;8.45;1.75;;;;;;;9.52;67.78;95779.69;2092219;28;20235;-70
2023/11/11 12:46:13;;;;;;;5.90;2.67;;;;;;;8.88;68.76;95774.38;2090192;28;20227;-70
2023/11/11 12:47:15;;;;;;;5.00;1.80;;;;;;;8.25;69.43;95770.56;2089976;28;20195;-70
2023/11/11 12:48:18;;;;;;;5.07;2.10;;;;;;;8.92;67.36;95767.25;2091066;28;20257;-69
2023/11/11 12:49:27;;;;;;;4.97;1.60;;;;;;;8.76;65.98;95768.06;2092156;28;20191;-70
2023/11/11 12:50:33;;;;;;;8.38;2.90;;;;;;;8.94;66.03;95762.81;2091214;28;20654;-70
2023/11/11 12:51:35;;;;;;;6.03;2.40;;;;;;;8.93;65.90;95768.94;2091992;28;20234;-70
2023/11/11 12:52:38;;;;;;;6.13;2.45;;;;;;;9.46;65.27;95765.25;2093221;28;20196;-70
2023/11/11 12:53:43;;;;;;;7.18;1.90;;;;;;;9.63;63.36;95759.09;2091025;28;20816;-70
2023/11/11 12:54:44;;;;;;;4.13;1.17;;;;;;;9.50;63.17;95765.06;2091151;28;20546;-70
2023/11/11 12:55:47;;;;;;;9.90;1.63;;;;;;;9.57;62.94;95759.47;2091926;28;20667;-70
2023/11/11 12:56:55;;;;;;;3.97;1.50;;;;;;;9.42;62.47;95761.13;2091753;28;20212;-70
2023/11/11 12:58:20;;;;;;;3.13;1.30;;;;;;;9.39;62.57;95757.84;2091512;28;20192;-69
2023/11/11 12:59:23;;;;;;;8.05;1.73;;;;;;;9.83;62.59;95764.13;2092238;28;20191;-70
2023/11/11 13:00:24;;;;;;;2.88;1.40;;;;;;;10.34;61.67;95763.91;2091664;28;20196;-70
2023/11/11 13:01:26;;;;;;;5.32;1.98;;;;;;;10.01;61.17;95755.28;2089883;28;20884;-69
2023/11/11 13:02:28;;;;;;;2.60;1.13;;;;;;;9.64;61.18;95754.75;2092547;28;20717;-69
2023/11/11 13:03:31;;;;;;;3.88;1.20;;;;;;;9.54;61.65;95758.78;2090086;28;20224;-69
2023/11/11 13:04:33;;;;;;;4.82;1.35;;;;;;;9.63;62.14;95761.69;2091550;28;20604;-68
2023/11/11 13:05:35;;;;;;;7.28;1.55;;;;;;;9.81;62.50;95759.00;2092454;28;20199;-69
2023/11/11 13:06:36;;;;;;;4.82;1.48;;;;;;;9.78;62.09;95762.63;2091736;28;20229;-69
2023/11/11 13:07:38;;;;;;;5.05;1.30;;;;;;;9.73;61.87;95756.00;2092116;28;20250;-68
2023/11/11 13:08:48;;;;;;;6.30;1.63;;;;;;;9.78;61.76;95760.03;2091517;28;20726;-68
2023/11/11 13:09:50;;;;;;;8.82;1.80;;;;;;;9.93;60.99;95752.28;2092474;28;20192;-69
2023/11/11 13:10:53;;;;;;;3.15;1.30;;;;;;;10.21;60.57;95755.91;2092103;28;20275;-69
2023/11/11 13:11:55;;;;;;;4.22;1.50;;;;;;;10.28;59.98;95758.09;2092754;28;20568;-68
2023/11/11 13:12:56;;;;;;;5.82;2.45;;;;;;;10.04;60.11;95743.84;2089506;28;20258;-69
2023/11/11 13:13:59;;;;;;;3.55;1.38;;;;;;;10.25;60.96;95754.81;2090143;28;20197;-69
2023/11/11 13:15:02;;;;;;;3.58;0.95;;;;;;;9.79;60.39;95746.06;2090964;28;20200;-68
2023/11/11 13:16:06;;;;;;;3.83;1.40;;;;;;;9.64;61.10;95747.75;2092857;28;20207;-69
2023/11/11 13:17:08;;;;;;;2.45;1.20;;;;;;;9.21;61.28;95752.69;2088655;28;20203;-68
2023/11/11 13:18:09;;;;;;;7.47;1.35;;;;;;;9.17;61.87;95748.56;2085121;28;20257;-69
2023/11/11 13:19:11;;;;;;;3.10;1.20;;;;;;;9.34;62.00;95750.25;2093300;28;20200;-68
2023/11/11 13:20:14;;;;;;;4.03;1.20;;;;;;;9.35;62.47;95751.13;2091729;28;20860;-68
2023/11/11 13:21:16;;;;;;;3.85;1.60;;;;;;;9.68;61.83;95752.81;2092297;28;20199;-63
2023/11/11 13:22:17;;;;;;;4.85;1.58;;;;;;;9.65;60.59;95753.81;2092200;28;20207;-63
2023/11/11 13:23:22;;;;;;;6.10;1.40;;;;;;;9.63;60.59;95751.28;2090861;28;20224;-63
2023/11/11 13:24:23;;;;;;;4.45;1.30;;;;;;;9.71;60.02;95748.25;2097604;28;20369;-63
2023/11/11 13:25:25;;;;;;;5.15;1.50;;;;;;;10.03;60.36;95749.97;2097993;28;20230;-64
2023/11/11 13:26:27;;;;;;;3.85;1.38;;;;;;;10.28;60.04;95745.06;2097718;28;20274;-63
2023/11/11 13:27:30;;;;;;;4.45;1.40;;;;;;;10.13;59.84;95757.22;2098604;28;20187;-64
2023/11/11 13:28:31;;;;;;;11.80;1.70;;;;;;;9.77;60.55;95758.34;2100914;28;20244;-63
2023/11/11 13:29:33;;;;;;;3.92;1.05;;;;;;;8.89;61.51;95750.03;2100984;28;20217;-63
2023/11/11 13:30:35;;;;;;;5.38;1.30;;;;;;;8.25;63.00;95754.09;2098608;28;20211;-63
2023/11/11 13:31:36;;;;;;;2.85;1.20;;;;;;;7.99;64.53;95751.03;2098419;28;20200;-62
2023/11/11 13:32:39;;;;;;;3.42;1.20;;;;;;;7.78;66.01;95760.69;2098251;28;20298;-63
2023/11/11 13:33:48;;;;;;;4.68;1.27;;;;;;;7.60;67.16;95755.44;2098447;28;20602;-62
2023/11/11 13:34:49;;;;;;;10.93;1.98;;;;;;;7.80;66.99;95756.28;2098557;28;20203;-62
2023/11/11 13:35:53;;;;;;;6.28;1.60;;;;;;;7.64;67.40;95754.41;2101290;28;20218;-62
2023/11/11 13:36:54;;;;;;;6.97;1.45;;;;;;;7.53;68.01;95756.69;2099399;28;20202;-62
2023/11/11 13:37:57;;;;;;;4.03;1.35;;;;;;;7.49;68.37;95755.09;2098124;28;20199;-62
2023/11/11 13:38:59;;;;;;;2.85;1.60;;;;;;;7.63;67.94;95755.31;2099084;28;20206;-63
2023/11/11 13:40:00;;;;;;;4.32;1.50;;;;;;;8.25;65.85;95760.16;2100283;28;20244;-64
2023/11/11 13:41:04;;;;;;;4.90;1.63;;;;;;;8.68;64.82;95749.38;2099006;28;20249;-63
2023/11/11 13:42:10;;;;;;;3.00;1.02;;;;;;;8.77;64.38;95756.72;2093768;28;20197;-63
2023/11/11 13:43:12;;;;;;;6.28;1.63;;;;;;;8.81;64.34;95757.38;2088457;28;20227;-63
2023/11/11 13:44:16;;;;;;;4.68;1.80;;;;;;;8.81;64.41;95762.59;2094742;28;20203;-63
2023/11/11 13:45:17;;;;;;;2.58;1.48;;;;;;;9.13;63.56;95762.69;2094674;28;20244;-63
2023/11/11 13:46:20;;;;;;;4.45;1.80;;;;;;;8.69;63.96;95763.25;2093537;28;20278;-63
2023/11/11 13:47:24;;;;;;;2.72;1.00;;;;;;;8.39;65.22;95759.44;2094534;28;20191;-63
2023/11/11 13:48:26;;;;;;;5.90;1.33;;;;;;;8.76;65.88;95762.84;2094559;28;20224;-63
2023/11/11 13:49:27;;;;;;;7.22;1.45;;;;;;;9.04;64.48;95763.16;2093187;28;20221;-63
2023/11/11 13:50:29;;;;;;;3.10;1.35;;;;;;;8.64;65.76;95769.50;2094648;28;20216;-63
2023/11/11 13:51:31;;;;;;;2.35;1.48;;;;;;;8.73;65.29;95775.16;2093268;28;20204;-63
2023/11/11 13:52:32;;;;;;;2.10;1.05;;;;;;;8.26;65.81;95768.81;2093761;28;20241;-62
2023/11/11 13:53:34;;;;;;;3.92;1.25;;;;;;;8.10;65.82;95771.31;2093007;28;20226;-63
2023/11/11 13:54:35;;;;;;;4.35;1.65;;;;;;;7.79;67.20;95777.97;2093262;28;20195;-62
2023/11/11 13:55:37;;;;;;;3.75;1.30;;;;;;;7.81;67.51;95769.19;2093747;28;20188;-63
2023/11/11 13:56:38;;;;;;;3.47;1.25;;;;;;;8.20;66.71;95774.31;2093435;28;20283;-63
2023/11/11 13:57:40;;;;;;;2.25;1.10;;;;;;;8.16;65.80;95768.41;2092648;28;20192;-62
2023/11/11 13:58:41;;;;;;;4.43;1.30;;;;;;;7.82;66.83;95767.44;2094203;28;20227;-64
2023/11/11 13:59:43;;;;;;;2.83;1.40;;;;;;;7.61;67.26;95770.13;2093588;28;20690;-63
2023/11/11 14:00:44;;;;;;;5.47;1.23;;;;;;;7.51;67.54;95766.28;2095157;28;20188;-62
2023/11/11 14:01:46;;;;;;;2.40;1.10;;;;;;;7.51;68.89;95774.06;2092603;28;20203;-63
2023/11/11 14:02:48;;;;;;;2.15;1.08;;;;;;;7.41;68.23;95773.66;2092897;28;20207;-63
2023/11/11 14:03:53;;;;;;;3.35;1.23;;;;;;;7.32;68.88;95769.72;2092654;28;20231;-62
2023/11/11 14:04:56;;;;;;;2.95;1.13;;;;;;;7.36;69.33;95767.81;2092723;28;20995;-63
2023/11/11 14:05:58;;;;;;;3.58;1.20;;;;;;;7.28;68.61;95769.94;2094137;28;20288;-63
2023/11/11 14:06:59;;;;;;;8.63;1.08;;;;;;;7.14;69.68;95776.59;2095027;28;20582;-63
2023/11/11 14:08:02;;;;;;;4.05;1.05;;;;;;;7.25;69.70;95781.31;2090828;28;20192;-63
2023/11/11 14:09:05;;;;;;;3.75;1.20;;;;;;;7.16;69.81;95782.56;2092180;28;20203;-63
2023/11/11 14:10:08;;;;;;;4.25;1.20;;;;;;;7.11;70.51;95788.88;2093037;28;20206;-63
2023/11/11 14:11:10;;;;;;;4.60;1.70;;;;;;;7.08;70.59;95778.63;2093174;28;20207;-63
2023/11/11 14:12:11;;;;;;;3.67;1.10;;;;;;;7.15;71.31;95774.84;2093466;28;20242;-63
2023/11/11 14:13:16;;;;;;;3.47;1.20;;;;;;;7.37;71.13;95779.06;2089924;28;20249;-63
2023/11/11 14:14:19;;;;;;;4.80;1.65;;;;;;;7.51;69.93;95768.88;2094297;28;20524;-63
2023/11/11 14:15:23;;;;;;;3.28;1.13;;;;;;;7.43;69.65;95778.81;2093030;28;20208;-63
2023/11/11 14:16:24;;;;;;;2.65;1.30;;;;;;;7.31;69.99;95765.47;2094038;28;20244;-63
2023/11/11 14:17:26;;;;;;;3.30;1.33;;;;;;;7.39;70.53;95778.09;2094403;28;20199;-63
2023/11/11 14:18:31;;;;;;;3.33;1.13;;;;;;;7.48;69.07;95780.25;2092656;28;20223;-63
2023/11/11 14:19:32;;;;;;;5.35;1.35;;;;;;;7.34;69.65;95778.28;2092413;28;20196;-63
2023/11/11 14:20:34;;;;;;;3.47;1.52;;;;;;;7.31;69.86;95780.19;2094695;28;20604;-63
2023/11/11 14:21:35;;;;;;;2.90;1.10;;;;;;;7.39;69.04;95775.50;2093478;28;20202;-63
2023/11/11 14:22:37;;;;;;;4.55;1.20;;;;;;;7.26;69.54;95782.16;2091644;28;20312;-63
2023/11/11 14:23:47;;;;;;;2.85;1.20;;;;;;;7.53;68.70;95785.25;2093595;28;20302;-63
2023/11/11 14:24:48;;;;;;;5.60;1.10;;;;;;;8.00;68.01;95791.72;2093966;28;20229;-63
2023/11/11 14:25:50;;;;;;;50.70;21.05;;;;;;;8.41;67.48;95778.44;2093014;28;20196;-63
2023/11/11 14:26:52;;;;;;;7.93;3.80;;;;;;;8.92;66.22;95777.66;2093048;28;20244;-63
2023/11/11 14:27:54;;;;;;;12.23;1.80;;;;;;;9.32;65.13;95786.81;2092834;28;20193;-63
2023/11/11 14:28:56;;;;;;;5.85;1.70;;;;;;;9.13;64.40;95789.56;2092589;28;20229;-63
2023/11/11 14:29:58;;;;;;;3.35;1.10;;;;;;;8.63;65.17;95775.66;2093349;28;20328;-63
2023/11/11 14:30:59;;;;;;;5.15;1.10;;;;;;;8.21;66.46;95792.44;2093104;28;20231;-63
2023/11/11 14:32:01;;;;;;;3.22;1.20;;;;;;;7.97;67.15;95791.84;2094591;28;20573;-63
2023/11/11 14:33:03;;;;;;;2.85;0.90;;;;;;;7.76;66.45;95794.56;2093995;28;20563;-63
2023/11/11 14:34:05;;;;;;;3.58;1.10;;;;;;;7.72;68.01;95794.78;2093558;28;20215;-63
2023/11/11 14:35:09;;;;;;;3.58;1.10;;;;;;;7.61;68.30;95795.28;2092491;28;20208;-63
2023/11/11 14:36:11;;;;;;;1.60;0.90;;;;;;;7.49;68.74;95794.94;2092470;28;20248;-63
2023/11/11 14:37:13;;;;;;;1.77;0.95;;;;;;;7.44;68.60;95806.44;2093397;28;20197;-63
2023/11/11 14:38:15;;;;;;;2.20;1.27;;;;;;;7.39;68.96;95796.28;2094257;28;20202;-63
2023/11/11 14:39:18;;;;;;;4.38;1.23;;;;;;;7.21;70.15;95791.91;2093294;28;20199;-63
2023/11/11 14:40:21;;;;;;;4.38;1.40;;;;;;;7.18;69.73;95795.47;2092931;28;20199;-63
2023/11/11 14:41:24;;;;;;;3.40;1.05;;;;;;;7.36;69.31;95801.59;2092784;28;20203;-63
2023/11/11 14:42:26;;;;;;;3.63;1.40;;;;;;;7.11;69.77;95804.44;2093713;28;20638;-63
2023/11/11 14:43:27;;;;;;;2.92;1.20;;;;;;;7.08;70.08;95804.59;2093486;28;20309;-63
2023/11/11 14:44:30;;;;;;;3.90;0.93;;;;;;;6.94;70.31;95805.19;2093847;28;20194;-63
2023/11/11 14:45:32;;;;;;;4.00;1.13;;;;;;;6.95;69.31;95815.50;2093496;28;20678;-63
2023/11/11 14:46:34;;;;;;;10.35;1.77;;;;;;;7.26;69.01;95805.53;2094014;28;21131;-63
2023/11/11 14:47:52;;;;;;;8.45;1.52;;;;;;;7.40;68.34;95815.28;2093262;28;20879;-65
2023/11/11 14:48:54;;;;;;;4.25;1.55;;;;;;;7.64;69.12;95814.19;2091861;28;20226;-64
2023/11/11 14:50:00;;;;;;;5.60;2.22;;;;;;;7.69;69.31;95819.16;2093231;28;20607;-64
2023/11/11 14:51:03;;;;;;;9.05;2.05;;;;;;;7.67;69.10;95819.22;2093727;28;20204;-64
2023/11/11 14:52:05;;;;;;;6.38;1.98;;;;;;;7.59;69.18;95817.88;2092746;28;20211;-64
2023/11/11 14:53:08;;;;;;;5.50;2.00;;;;;;;7.72;69.03;95828.56;2091442;28;20204;-64
2023/11/11 14:54:09;;;;;;;4.75;1.98;;;;;;;7.79;68.31;95809.19;2093005;28;20196;-64
2023/11/11 14:55:14;;;;;;;4.50;1.50;;;;;;;7.78;68.25;95820.47;2093949;28;20200;-63
2023/11/11 14:56:16;;;;;;;5.05;1.48;;;;;;;7.58;68.60;95830.06;2094658;28;20647;-63
2023/11/11 14:57:17;;;;;;;2.83;1.20;;;;;;;7.38;69.06;95828.34;2091596;28;20192;-64
2023/11/11 14:58:19;;;;;;;6.07;1.60;;;;;;;7.16;69.65;95834.50;2091667;28;20218;-64
2023/11/11 14:59:20;;;;;;;5.60;1.23;;;;;;;7.16;70.37;95831.91;2092031;28;21126;-64
2023/11/11 15:00:24;;;;;;;2.55;1.10;;;;;;;7.19;69.83;95828.31;2092576;28;20735;-64
2023/11/11 15:01:26;;;;;;;2.88;1.35;;;;;;;7.05;70.03;95835.84;2094279;28;20227;-64
2023/11/11 15:02:31;;;;;;;2.85;1.50;;;;;;;6.95;70.46;95836.28;2092383;28;20196;-64
2023/11/11 15:03:34;;;;;;;3.88;1.38;;;;;;;6.92;70.89;95831.22;2091319;28;20260;-64
2023/11/11 15:04:36;;;;;;;5.88;1.35;;;;;;;7.01;71.08;95830.81;2092112;28;20679;-63
2023/11/11 15:05:37;;;;;;;3.05;1.15;;;;;;;6.87;70.39;95830.59;2092677;28;20231;-64
2023/11/11 15:06:39;;;;;;;4.53;1.52;;;;;;;6.93;70.82;95829.47;2091492;28;20196;-64
2023/11/11 15:07:40;;;;;;;9.95;1.80;;;;;;;6.87;70.48;95835.78;2090932;28;20203;-63
2023/11/11 15:08:45;;;;;;;4.75;1.10;;;;;;;7.21;69.59;95836.03;2091480;28;20228;-63
2023/11/11 15:09:47;;;;;;;3.63;1.10;;;;;;;7.52;68.67;95832.94;2094606;28;20235;-64
2023/11/11 15:10:49;;;;;;;4.20;1.40;;;;;;;7.82;67.93;95832.41;2093480;28;20254;-63
2023/11/11 15:11:50;;;;;;;3.70;0.98;;;;;;;8.01;67.55;95833.25;2093247;28;20372;-63
2023/11/11 15:12:52;;;;;;;3.80;1.35;;;;;;;8.16;67.01;95833.41;2093945;28;20260;-63
2023/11/11 15:13:54;;;;;;;4.07;1.35;;;;;;;8.25;66.71;95833.00;2093024;28;20245;-63
2023/11/11 15:14:57;;;;;;;6.22;1.70;;;;;;;8.30;66.01;95831.00;2091794;28;20241;-63
2023/11/11 15:15:59;;;;;;;2.25;0.98;;;;;;;8.05;66.10;95835.69;2093202;28;20191;-63
2023/11/11 15:17:01;;;;;;;6.82;1.70;;;;;;;7.97;66.34;95833.44;2092210;28;20235;-63